Time;durP1;ratioP1;P1;durP2;ratioP2;P2;SDS_P1;SDS_P2;PMS_P1;PMS_P2;Temp;Humidity;BMP_temperature;BMP_pressure;BME280_temperature;BME280_humidity;BME280_pressure;Samples;Min_cycle;Max_cycle;Signal;HPM_P1;HPM_P2
2023/07/01 08:00:01;;;;;;;3.83;1.83;;;24.10;50.50;;;;;;5129164;27;20578;-46
2023/07/01 08:02:44;;;;;;;5.70;1.70;;;24.00;53.60;;;;;;5100345;28;20955;-45
2023/07/01 08:05:21;;;;;;;2.93;1.90;;;23.80;55.40;;;;;;5078376;28;20528;-44
2023/07/01 08:07:49;;;;;;;2.07;1.70;;;23.70;55.80;;;;;;5082768;28;20833;-46
2023/07/01 08:10:18;;;;;;;2.07;1.57;;;23.50;56.60;;;;;;5031470;28;21045;-45
2023/07/01 08:12:47;;;;;;;2.20;1.60;;;23.40;57.70;;;;;;5031469;28;20523;-46
2023/07/01 08:15:17;;;;;;;2.90;1.10;;;23.30;60.00;;;;;;5025497;28;20960;-44
2023/07/01 08:17:46;;;;;;;2.87;1.60;;;23.30;58.20;;;;;;5037322;28;20471;-47
2023/07/01 08:20:14;;;;;;;2.23;1.50;;;23.40;57.20;;;;;;5077583;28;20468;-45
2023/07/01 08:22:43;;;;;;;2.17;1.13;;;23.40;56.70;;;;;;5079512;28;20433;-45
2023/07/01 08:25:12;;;;;;;2.13;1.30;;;23.50;56.30;;;;;;5076981;28;20445;-45
2023/07/01 08:27:40;;;;;;;2.80;1.20;;;23.60;56.50;;;;;;5096075;28;20797;-46
2023/07/01 08:30:09;;;;;;;1.60;1.03;;;23.70;56.00;;;;;;5076904;28;21056;-46
2023/07/01 08:32:40;;;;;;;2.73;1.27;;;23.70;55.60;;;;;;5063431;28;20434;-47
2023/07/01 08:35:09;;;;;;;1.97;1.37;;;23.70;55.50;;;;;;5052581;28;20433;-47
2023/07/01 08:37:38;;;;;;;1.70;1.17;;;23.80;55.30;;;;;;5073398;28;20423;-46
2023/07/01 08:40:08;;;;;;;1.93;1.40;;;23.80;55.10;;;;;;5056069;28;21125;-46
2023/07/01 08:42:42;;;;;;;1.93;1.03;;;23.80;55.00;;;;;;5063515;28;20792;-48
2023/07/01 08:45:12;;;;;;;1.83;1.30;;;23.80;54.90;;;;;;5050407;28;20441;-44
2023/07/01 08:47:42;;;;;;;1.87;1.00;;;23.90;54.70;;;;;;5081043;28;20476;-48
2023/07/01 08:50:15;;;;;;;1.57;1.10;;;23.90;54.60;;;;;;5047582;28;20472;-46
2023/07/01 08:52:47;;;;;;;1.67;0.97;;;23.90;54.60;;;;;;5077551;28;20426;-47
2023/07/01 08:55:16;;;;;;;1.50;1.00;;;23.90;54.60;;;;;;5069916;28;20540;-47
2023/07/01 08:57:45;;;;;;;2.20;1.27;;;23.90;54.40;;;;;;5071116;28;20466;-46
2023/07/01 09:00:14;;;;;;;2.20;1.00;;;23.90;54.30;;;;;;5037954;28;20482;-45
2023/07/01 09:02:45;;;;;;;1.23;0.90;;;23.90;54.40;;;;;;5053681;28;20911;-45
2023/07/01 09:05:14;;;;;;;1.50;1.00;;;23.90;54.30;;;;;;5055673;28;20456;-45
2023/07/01 09:07:42;;;;;;;1.40;0.90;;;23.90;54.30;;;;;;5037193;28;20509;-43
2023/07/01 09:10:13;;;;;;;1.60;1.20;;;23.90;54.30;;;;;;5024454;28;20470;-44
2023/07/01 09:12:41;;;;;;;2.03;1.30;;;23.90;54.20;;;;;;5021637;28;20455;-45
2023/07/01 09:15:11;;;;;;;2.20;1.10;;;23.90;54.10;;;;;;5016393;28;20838;-46
2023/07/01 09:17:41;;;;;;;1.90;0.87;;;23.90;54.20;;;;;;5027503;28;20439;-44
2023/07/01 09:20:14;;;;;;;1.37;0.73;;;23.90;54.20;;;;;;5031601;28;20570;-44
2023/07/01 09:22:45;;;;;;;1.30;0.50;;;23.90;54.10;;;;;;5029496;28;20455;-45
2023/07/01 09:25:27;;;;;;;1.90;0.80;;;23.90;54.90;;;;;;5053169;28;20468;-44
2023/07/01 09:27:56;;;;;;;0.90;0.40;;;23.90;55.20;;;;;;5039185;28;20210;-45
2023/07/01 09:30:26;;;;;;;1.67;0.40;;;23.80;55.60;;;;;;5040109;28;20610;-46
2023/07/01 09:33:11;;;;;;;2.40;0.50;;;23.80;56.00;;;;;;5033547;28;20958;-46
2023/07/01 09:35:45;;;;;;;1.33;0.50;;;23.70;56.10;;;;;;5033304;28;20466;-46
2023/07/01 09:38:15;;;;;;;2.60;0.60;;;23.70;56.40;;;;;;5041489;28;20948;-44
2023/07/01 09:40:44;;;;;;;2.40;0.50;;;23.60;56.80;;;;;;5048103;28;20265;-44
2023/07/01 09:43:12;;;;;;;1.10;0.40;;;23.50;57.20;;;;;;5033513;28;20462;-47
2023/07/01 09:45:54;;;;;;;0.83;0.40;;;23.50;57.00;;;;;;5066178;28;20471;-45
2023/07/01 09:48:23;;;;;;;1.10;0.53;;;23.50;57.00;;;;;;5059984;28;20900;-45
2023/07/01 09:53:35;;;;;;;1.73;0.40;;;23.50;57.00;;;;;;4986262;28;20480;-66
2023/07/01 09:56:04;;;;;;;1.25;0.50;;;23.50;57.10;;;;;;4994175;28;20478;-66
2023/07/01 09:58:33;;;;;;;1.10;0.43;;;23.60;57.10;;;;;;4989940;28;20228;-67
2023/07/01 10:01:02;;;;;;;1.47;0.40;;;23.60;57.00;;;;;;4992629;28;20449;-66
2023/07/01 10:03:33;;;;;;;0.90;0.40;;;23.60;57.30;;;;;;4981685;28;20493;-65
2023/07/01 10:06:02;;;;;;;2.27;0.93;;;23.60;57.20;;;;;;4990254;28;20452;-65
2023/07/01 10:08:30;;;;;;;2.30;1.20;;;23.60;57.60;;;;;;4985888;28;20485;-65
2023/07/01 10:11:06;;;;;;;2.07;1.23;;;23.40;58.60;;;;;;4991246;28;20981;-65
2023/07/01 10:13:39;;;;;;;1.70;0.60;;;23.10;58.90;;;;;;4989466;28;20558;-66
2023/07/01 10:16:09;;;;;;;1.20;0.40;;;23.10;60.20;;;;;;4987159;28;20428;-65
2023/07/01 10:18:37;;;;;;;0.93;0.33;;;22.90;60.30;;;;;;4994478;28;20463;-66
2023/07/01 10:21:31;;;;;;;1.10;0.50;;;22.80;60.70;;;;;;4984902;28;20482;-64
2023/07/01 10:24:00;;;;;;;0.60;0.30;;;22.70;61.50;;;;;;4996225;28;20875;-65
2023/07/01 10:26:43;;;;;;;0.80;0.50;;;22.70;61.40;;;;;;4992854;28;20437;-65
2023/07/01 10:29:39;;;;;;;0.50;0.30;;;22.60;62.60;;;;;;4966463;28;20838;-65
2023/07/01 10:32:30;;;;;;;0.70;0.40;;;22.60;62.80;;;;;;4985763;28;20466;-63
2023/07/01 10:35:18;;;;;;;4.30;0.73;;;22.50;62.50;;;;;;4985225;28;20474;-63
2023/07/01 10:38:21;;;;;;;2.60;0.50;;;22.40;63.30;;;;;;4998220;28;20461;-65
2023/07/01 10:40:49;;;;;;;1.23;0.43;;;22.40;63.10;;;;;;4971242;28;20478;-66
2023/07/01 10:43:27;;;;;;;0.70;0.60;;;22.30;64.20;;;;;;4987697;28;20490;-64
2023/07/01 10:46:11;;;;;;;6.87;1.37;;;22.20;65.00;;;;;;4985887;28;20865;-65
2023/07/01 10:48:41;;;;;;;3.53;1.00;;;22.30;65.20;;;;;;4994131;28;20483;-64
2023/07/01 10:51:11;;;;;;;4.43;0.83;;;22.40;64.60;;;;;;4985452;28;20857;-66
2023/07/01 10:53:59;;;;;;;1.85;0.80;;;22.30;64.20;;;;;;4981175;28;20930;-66
2023/07/01 10:56:30;;;;;;;0.90;0.50;;;22.40;64.00;;;;;;4984906;28;20201;-65
2023/07/01 10:59:25;;;;;;;1.50;0.93;;;22.50;63.30;;;;;;4985884;28;20481;-67
2023/07/01 11:01:57;;;;;;;1.53;1.07;;;22.60;62.90;;;;;;4982563;28;20497;-67
2023/07/01 11:04:47;;;;;;;0.97;0.70;;;22.70;62.40;;;;;;4982742;28;20474;-66
2023/07/01 11:07:24;;;;;;;1.00;0.77;;;22.80;62.00;;;;;;4991036;28;20488;-65
2023/07/01 11:09:53;;;;;;;1.13;0.90;;;22.80;61.80;;;;;;4969902;28;20540;-67
2023/07/01 11:12:23;;;;;;;1.00;0.77;;;22.80;61.50;;;;;;4985862;28;20487;-66
2023/07/01 11:14:54;;;;;;;1.50;0.80;;;22.90;61.50;;;;;;4980993;28;20840;-67
2023/07/01 11:17:23;;;;;;;1.53;0.70;;;23.00;61.20;;;;;;4985965;28;20990;-67
2023/07/01 11:19:54;;;;;;;1.10;0.70;;;23.00;61.30;;;;;;4992741;28;20487;-65
2023/07/01 11:22:24;;;;;;;2.70;0.87;;;23.00;61.10;;;;;;4984288;28;20467;-67
2023/07/01 11:24:52;;;;;;;0.70;0.40;;;23.00;60.90;;;;;;4969341;28;20472;-67
2023/07/01 11:27:21;;;;;;;1.00;0.60;;;23.00;60.80;;;;;;4990070;28;21005;-67
2023/07/01 11:29:49;;;;;;;0.83;0.50;;;23.10;60.70;;;;;;4988305;28;21266;-66
2023/07/01 11:32:19;;;;;;;0.80;0.40;;;23.10;60.40;;;;;;4986139;28;20536;-67
2023/07/01 11:34:50;;;;;;;2.70;0.50;;;23.10;60.10;;;;;;4992987;28;20464;-66
2023/07/01 11:37:25;;;;;;;2.00;0.80;;;23.10;60.10;;;;;;4984480;28;20488;-67
2023/07/01 11:39:53;;;;;;;1.00;0.50;;;23.10;60.20;;;;;;4982997;28;20229;-68
2023/07/01 11:42:25;;;;;;;1.53;0.53;;;23.10;60.10;;;;;;4984799;28;20501;-67
2023/07/01 11:44:53;;;;;;;1.63;0.70;;;23.10;60.00;;;;;;4983987;28;21016;-67
2023/07/01 11:47:23;;;;;;;1.63;0.60;;;23.10;60.00;;;;;;4971278;28;20536;-66
2023/07/01 11:49:52;;;;;;;0.80;0.40;;;23.10;60.00;;;;;;4983245;28;21061;-67
2023/07/01 11:52:24;;;;;;;1.47;0.90;;;23.10;60.10;;;;;;4972187;28;20482;-67
2023/07/01 11:54:54;;;;;;;3.23;1.10;;;23.10;60.30;;;;;;4984023;28;20817;-67
2023/07/01 11:57:24;;;;;;;1.10;0.70;;;23.10;60.40;;;;;;4986238;28;20485;-66
2023/07/01 11:59:58;;;;;;;1.73;0.80;;;23.10;60.30;;;;;;4977891;28;20924;-66
2023/07/01 12:02:29;;;;;;;1.77;0.70;;;23.20;61.50;;;;;;4979249;28;20472;-67
2023/07/01 12:04:58;;;;;;;1.73;0.63;;;23.10;60.00;;;;;;4980092;28;20450;-67
2023/07/01 12:07:30;;;;;;;1.43;0.80;;;23.20;60.30;;;;;;4964941;28;20457;-68
2023/07/01 12:10:20;;;;;;;1.23;0.80;;;23.20;60.20;;;;;;4984749;28;20467;-67
2023/07/01 12:12:48;;;;;;;1.33;0.80;;;23.20;60.50;;;;;;4967817;28;20485;-73
2023/07/01 12:15:19;;;;;;;2.57;0.90;;;23.20;60.60;;;;;;4970239;28;20424;-73
2023/07/01 12:17:51;;;;;;;1.33;0.90;;;23.20;60.50;;;;;;4984939;28;20525;-73
2023/07/01 12:20:19;;;;;;;2.53;0.73;;;23.20;60.40;;;;;;4984304;28;20535;-72
2023/07/01 12:22:50;;;;;;;1.40;0.90;;;23.20;60.40;;;;;;4979645;28;20495;-72
2023/07/01 12:25:18;;;;;;;3.03;1.30;;;23.20;60.50;;;;;;4973606;28;20472;-73
2023/07/01 12:27:47;;;;;;;3.07;1.30;;;23.20;60.20;;;;;;4993307;28;21164;-71
2023/07/01 12:30:15;;;;;;;1.70;0.83;;;23.20;60.40;;;;;;4998113;28;20503;-72
2023/07/01 12:32:48;;;;;;;1.47;0.77;;;23.20;60.50;;;;;;4972536;28;20898;-72
2023/07/01 12:35:18;;;;;;;1.47;1.03;;;23.20;60.50;;;;;;4977464;28;20810;-73
2023/07/01 12:37:48;;;;;;;1.40;1.20;;;23.20;60.50;;;;;;4993258;28;20472;-72
2023/07/01 12:40:18;;;;;;;1.30;0.80;;;23.20;60.50;;;;;;4977715;28;20818;-72
2023/07/01 12:42:48;;;;;;;1.60;1.00;;;23.20;60.40;;;;;;4993728;28;20523;-72
2023/07/01 12:45:17;;;;;;;1.30;1.00;;;23.30;60.40;;;;;;4986573;28;20477;-72
2023/07/01 12:47:45;;;;;;;1.90;1.30;;;23.30;60.20;;;;;;4973138;28;20497;-72
2023/07/01 12:50:14;;;;;;;1.83;1.10;;;23.20;60.30;;;;;;4972962;28;20456;-73
2023/07/01 12:52:44;;;;;;;1.47;1.07;;;23.30;60.50;;;;;;4972576;28;20467;-73
2023/07/01 12:55:13;;;;;;;1.40;0.80;;;23.30;60.20;;;;;;4980302;28;20453;-72
2023/07/01 12:57:41;;;;;;;1.90;1.43;;;23.30;60.30;;;;;;4996687;28;20926;-73
2023/07/01 13:00:12;;;;;;;2.90;1.73;;;23.30;60.80;;;;;;4965808;28;20505;-72
2023/07/01 13:02:43;;;;;;;1.47;1.20;;;23.30;60.30;;;;;;4992108;28;21047;-73
2023/07/01 13:05:18;;;;;;;1.60;1.30;;;23.30;60.00;;;;;;4965374;28;21035;-73
2023/07/01 13:07:49;;;;;;;1.33;1.00;;;23.30;60.10;;;;;;4995520;28;20441;-73
2023/07/01 13:10:19;;;;;;;1.50;1.00;;;23.30;60.40;;;;;;4988580;28;20984;-73
2023/07/01 13:12:50;;;;;;;1.80;0.97;;;23.30;60.30;;;;;;4987518;28;20473;-72
2023/07/01 13:15:28;;;;;;;2.03;0.70;;;23.30;60.80;;;;;;4987293;28;20478;-72
2023/07/01 13:17:56;;;;;;;1.77;1.10;;;23.30;60.70;;;;;;4978798;28;20444;-73
2023/07/01 13:20:27;;;;;;;1.33;0.83;;;23.30;61.20;;;;;;4986892;28;20938;-73
2023/07/01 13:23:00;;;;;;;0.93;0.80;;;23.30;62.30;;;;;;4987472;28;20527;-73
2023/07/01 13:25:29;;;;;;;3.13;0.80;;;23.20;63.80;;;;;;4974392;28;20558;-72
2023/07/01 13:28:03;;;;;;;1.30;0.90;;;23.20;63.60;;;;;;4980502;28;20463;-73
2023/07/01 13:30:39;;;;;;;1.00;0.90;;;23.20;65.90;;;;;;4983397;28;20795;-72
2023/07/01 13:33:08;;;;;;;1.00;0.90;;;23.20;66.90;;;;;;4985680;28;20469;-73
2023/07/01 13:35:38;;;;;;;1.40;1.30;;;23.20;67.70;;;;;;4986374;28;20456;-73
2023/07/01 13:38:09;;;;;;;1.43;1.33;;;23.20;67.90;;;;;;4998048;28;20453;-73
2023/07/01 13:40:42;;;;;;;1.13;1.03;;;23.20;67.70;;;;;;4989112;28;20453;-73
2023/07/01 13:43:17;;;;;;;2.40;1.30;;;23.20;68.40;;;;;;4999492;28;20529;-73
2023/07/01 13:45:46;;;;;;;0.90;0.90;;;23.30;68.70;;;;;;4982211;28;20857;-72
2023/07/01 13:48:25;;;;;;;1.60;1.40;;;23.20;69.20;;;;;;4988979;28;20501;-68
2023/07/01 13:51:01;;;;;;;1.00;0.80;;;23.30;69.90;;;;;;4973170;28;20457;-68
2023/07/01 13:53:32;;;;;;;1.10;1.00;;;23.30;68.70;;;;;;4984059;28;20475;-67
2023/07/01 13:56:02;;;;;;;1.00;0.90;;;23.30;69.00;;;;;;4995040;28;20459;-67
2023/07/01 13:58:31;;;;;;;2.47;1.00;;;23.30;69.10;;;;;;4986334;28;20456;-67
2023/07/01 14:00:59;;;;;;;2.20;1.20;;;23.30;69.00;;;;;;4986999;28;20454;-68
2023/07/01 14:03:46;;;;;;;1.23;0.93;;;23.30;69.50;;;;;;4985631;28;20887;-68
2023/07/01 14:06:16;;;;;;;3.03;1.13;;;23.30;68.80;;;;;;4981075;28;20436;-68
2023/07/01 14:08:47;;;;;;;1.40;1.03;;;23.40;68.60;;;;;;4980615;28;20564;-67
2023/07/01 14:11:18;;;;;;;2.10;1.10;;;23.40;67.90;;;;;;4992526;28;20439;-68
2023/07/01 14:13:51;;;;;;;2.70;1.40;;;23.30;68.40;;;;;;4987563;28;20478;-69
2023/07/01 14:16:21;;;;;;;1.80;1.47;;;23.40;68.40;;;;;;4992772;28;20570;-67
2023/07/01 14:18:51;;;;;;;1.90;1.70;;;23.30;68.40;;;;;;4986814;28;20501;-68
2023/07/01 14:21:28;;;;;;;2.90;1.90;;;23.30;67.60;;;;;;4988818;28;20478;-68
2023/07/01 14:24:04;;;;;;;1.73;1.63;;;23.30;68.20;;;;;;4980363;28;21008;-68
2023/07/01 14:26:41;;;;;;;1.70;1.50;;;23.30;67.10;;;;;;4988033;28;20444;-67
2023/07/01 14:29:14;;;;;;;1.20;1.10;;;23.30;67.00;;;;;;4988583;28;20469;-67
2023/07/01 14:31:45;;;;;;;5.70;1.30;;;23.30;67.10;;;;;;4975626;28;20468;-74
2023/07/01 14:34:16;;;;;;;1.47;1.20;;;23.30;67.00;;;;;;4994518;28;20468;-74
2023/07/01 14:36:45;;;;;;;1.10;1.00;;;23.30;67.10;;;;;;4986692;28;20452;-73
2023/07/01 14:39:39;;;;;;;3.17;1.27;;;23.30;67.00;;;;;;4980275;28;20485;-72
2023/07/01 14:42:08;;;;;;;2.60;1.60;;;23.30;67.70;;;;;;4984858;28;20486;-73
2023/07/01 14:44:36;;;;;;;1.40;1.30;;;23.30;67.00;;;;;;4990546;28;21137;-73
2023/07/01 14:47:05;;;;;;;1.40;1.30;;;23.30;67.00;;;;;;4985800;28;20618;-73
2023/07/01 14:49:35;;;;;;;1.90;1.40;;;23.30;67.10;;;;;;4985733;28;20457;-72
2023/07/01 14:52:05;;;;;;;1.40;1.27;;;23.30;67.00;;;;;;4984697;28;20516;-73
2023/07/01 14:54:35;;;;;;;1.60;1.50;;;23.30;67.00;;;;;;4985754;28;20466;-72
2023/07/01 14:57:04;;;;;;;1.30;1.20;;;23.30;68.30;;;;;;4970008;28;20460;-72
2023/07/01 14:59:32;;;;;;;1.43;1.27;;;23.30;67.20;;;;;;4984656;28;20489;-73
2023/07/01 15:02:01;;;;;;;1.43;1.30;;;23.30;65.80;;;;;;4986090;28;20497;-71
2023/07/01 15:04:30;;;;;;;2.37;1.10;;;23.40;65.10;;;;;;4992412;28;20878;-72
2023/07/01 15:06:59;;;;;;;2.20;1.33;;;23.40;63.70;;;;;;4972857;28;20448;-72
2023/07/01 15:09:27;;;;;;;2.70;1.07;;;23.50;61.70;;;;;;4975626;28;20478;-73
2023/07/01 15:11:57;;;;;;;2.90;1.07;;;23.50;61.80;;;;;;4997052;28;20504;-73
2023/07/01 15:14:26;;;;;;;1.37;1.17;;;23.50;61.00;;;;;;4974019;28;20560;-72
2023/07/01 15:16:55;;;;;;;2.50;1.30;;;23.40;61.40;;;;;;4985950;28;20496;-73
2023/07/01 15:19:24;;;;;;;3.53;1.40;;;23.50;61.40;;;;;;4987048;28;20488;-67
2023/07/01 15:21:53;;;;;;;1.90;1.07;;;23.40;61.50;;;;;;4970754;28;20471;-68
2023/07/01 15:24:22;;;;;;;3.13;1.13;;;23.50;60.90;;;;;;4984733;28;20491;-67
2023/07/01 15:26:50;;;;;;;5.07;1.37;;;23.40;60.20;;;;;;4998682;28;20480;-67
2023/07/01 15:29:20;;;;;;;4.33;1.50;;;23.60;57.80;;;;;;4986577;28;20528;-67
2023/07/01 15:31:48;;;;;;;5.53;1.53;;;23.60;56.40;;;;;;4968539;28;21013;-68
2023/07/01 15:34:17;;;;;;;1.47;1.13;;;23.60;56.90;;;;;;4999298;28;20467;-68
2023/07/01 15:36:46;;;;;;;4.03;1.27;;;23.40;57.50;;;;;;4968434;28;20473;-67
2023/07/01 15:39:15;;;;;;;1.43;1.20;;;23.30;57.80;;;;;;4962873;28;20982;-68
2023/07/01 15:41:46;;;;;;;4.83;1.10;;;23.30;58.10;;;;;;4985110;28;20449;-68
2023/07/01 15:44:16;;;;;;;3.73;1.00;;;23.30;58.60;;;;;;4979584;28;20552;-69
2023/07/01 15:46:46;;;;;;;2.00;1.80;;;23.30;58.80;;;;;;4989584;28;20450;-67
2023/07/01 15:49:14;;;;;;;2.93;1.20;;;23.20;59.00;;;;;;4974188;28;20474;-68
2023/07/01 15:51:43;;;;;;;1.90;1.00;;;23.30;58.90;;;;;;4969065;28;20633;-68
2023/07/01 15:54:12;;;;;;;2.03;0.90;;;23.30;60.20;;;;;;4983862;28;20700;-68
2023/07/01 15:56:41;;;;;;;2.70;1.33;;;23.30;58.60;;;;;;4985334;28;20990;-68
2023/07/01 15:59:10;;;;;;;1.97;0.80;;;23.30;58.60;;;;;;4983424;28;20835;-68
2023/07/01 16:01:38;;;;;;;1.67;1.00;;;23.30;58.50;;;;;;4984430;28;20471;-67
2023/07/01 16:04:09;;;;;;;1.90;0.90;;;23.30;58.40;;;;;;4971590;28;20575;-66
2023/07/01 16:06:37;;;;;;;4.25;1.30;;;23.30;58.40;;;;;;4992965;28;20955;-66
2023/07/01 16:09:50;;;;;;;6.77;1.10;;;23.30;58.20;;;;;;4981120;28;20238;-65
2023/07/01 16:12:31;;;;;;;10.00;1.60;;;23.20;58.40;;;;;;4985629;28;20843;-68
2023/07/01 16:15:06;;;;;;;9.93;1.40;;;23.20;58.80;;;;;;4967494;28;20484;-67
2023/07/01 16:17:35;;;;;;;4.30;1.00;;;23.20;58.90;;;;;;4976539;28;20458;-65
2023/07/01 16:20:40;;;;;;;3.10;1.10;;;23.20;58.70;;;;;;4986508;28;20508;-67
2023/07/01 16:23:09;;;;;;;4.60;1.33;;;23.20;58.80;;;;;;4980221;28;20579;-66
2023/07/01 16:25:39;;;;;;;3.40;0.97;;;23.20;58.80;;;;;;4984745;28;20511;-67
2023/07/01 16:28:08;;;;;;;4.60;1.07;;;23.20;58.50;;;;;;4982266;28;20463;-67
2023/07/01 16:30:39;;;;;;;2.20;0.73;;;23.20;58.60;;;;;;4985524;28;20457;-66
2023/07/01 16:33:09;;;;;;;3.60;1.10;;;23.10;58.50;;;;;;4974632;28;20480;-66
2023/07/01 16:36:15;;;;;;;3.97;1.07;;;23.20;58.70;;;;;;4975683;28;20455;-67
2023/07/01 16:38:44;;;;;;;1.57;1.20;;;23.20;58.70;;;;;;4978975;28;20507;-67
2023/07/01 16:41:15;;;;;;;2.23;1.07;;;23.20;58.70;;;;;;4993428;28;20456;-67
2023/07/01 16:43:46;;;;;;;2.53;1.07;;;23.20;58.80;;;;;;4982126;28;20471;-68
2023/07/01 16:46:15;;;;;;;2.53;0.93;;;23.20;58.90;;;;;;4983164;28;20470;-66
2023/07/01 16:48:48;;;;;;;3.63;0.90;;;23.20;58.90;;;;;;4992360;28;20474;-67
2023/07/01 16:51:19;;;;;;;2.73;1.27;;;23.20;58.90;;;;;;4980762;28;20444;-69
2023/07/01 16:54:14;;;;;;;2.60;1.10;;;23.20;59.00;;;;;;4982564;28;20532;-69
2023/07/01 16:56:47;;;;;;;3.43;1.20;;;23.20;58.90;;;;;;4987185;28;20480;-70
2023/07/01 16:59:32;;;;;;;4.10;1.20;;;23.20;58.90;;;;;;4981229;28;20482;-66
2023/07/01 17:02:00;;;;;;;3.73;1.33;;;23.20;59.20;;;;;;4986606;28;20484;-67
2023/07/01 17:04:31;;;;;;;1.47;0.93;;;23.20;59.20;;;;;;4975442;28;20485;-67
2023/07/01 17:07:01;;;;;;;1.70;1.10;;;23.20;59.10;;;;;;4985995;28;20487;-67
2023/07/01 17:09:42;;;;;;;1.80;1.10;;;23.20;59.00;;;;;;4977201;28;20481;-67
2023/07/01 17:12:26;;;;;;;2.70;1.20;;;23.30;59.00;;;;;;4980987;28;20490;-68
2023/07/01 17:14:55;;;;;;;5.90;1.70;;;23.40;58.50;;;;;;4986282;28;20474;-68
2023/07/01 17:17:41;;;;;;;5.87;1.37;;;23.50;58.00;;;;;;4987875;28;20453;-66
2023/07/01 17:20:11;;;;;;;2.37;1.63;;;23.50;57.20;;;;;;4977524;28;20476;-67
2023/07/01 17:22:41;;;;;;;2.07;1.40;;;23.30;57.80;;;;;;4985907;28;20472;-68
2023/07/01 17:25:10;;;;;;;6.00;2.30;;;23.20;58.30;;;;;;4987224;28;20458;-67
2023/07/01 17:27:39;;;;;;;3.30;1.20;;;23.20;58.40;;;;;;4979897;28;20445;-68
2023/07/01 17:30:08;;;;;;;1.90;1.20;;;23.10;58.30;;;;;;4987683;28;20453;-67
2023/07/01 17:32:37;;;;;;;2.40;1.33;;;23.20;58.50;;;;;;5000226;28;20571;-69
2023/07/01 17:35:15;;;;;;;2.27;1.43;;;23.20;58.50;;;;;;4986810;28;20445;-73
2023/07/01 17:37:45;;;;;;;2.30;1.40;;;23.20;58.40;;;;;;4995186;28;20429;-72
2023/07/01 17:40:14;;;;;;;2.27;1.20;;;23.20;58.40;;;;;;4988871;28;20941;-73
2023/07/01 17:42:43;;;;;;;2.07;1.27;;;23.20;58.30;;;;;;4988060;28;21152;-67
2023/07/01 17:45:12;;;;;;;3.00;1.67;;;23.20;58.30;;;;;;4972527;28;20498;-68
2023/07/01 17:47:41;;;;;;;4.30;1.60;;;23.30;58.30;;;;;;4972343;28;20930;-66
2023/07/01 17:50:10;;;;;;;1.83;1.30;;;23.30;58.30;;;;;;4992279;28;20474;-67
2023/07/01 17:52:51;;;;;;;1.10;0.87;;;23.30;58.20;;;;;;4985825;28;20911;-67
2023/07/01 17:55:19;;;;;;;2.17;1.20;;;23.30;58.30;;;;;;4978259;28;20485;-67
2023/07/01 17:57:48;;;;;;;1.40;1.10;;;23.30;58.30;;;;;;4986733;28;20566;-67
2023/07/01 18:00:25;;;;;;;1.83;1.23;;;23.30;58.20;;;;;;4983439;28;20939;-65
2023/07/01 18:02:54;;;;;;;3.80;1.40;;;23.30;58.20;;;;;;4987116;28;20466;-67
2023/07/01 18:05:22;;;;;;;3.07;1.30;;;23.30;58.00;;;;;;4971315;28;20448;-69
2023/07/01 18:07:53;;;;;;;2.97;1.50;;;23.30;57.90;;;;;;4973156;28;20467;-66
2023/07/01 18:10:21;;;;;;;5.60;1.23;;;23.30;57.80;;;;;;4996735;28;20456;-67
2023/07/01 18:12:52;;;;;;;1.33;1.10;;;23.30;57.60;;;;;;4994734;28;20633;-66
2023/07/01 18:15:21;;;;;;;3.23;1.40;;;23.30;57.30;;;;;;4977355;28;20481;-67
2023/07/01 18:17:49;;;;;;;1.93;1.10;;;23.30;57.40;;;;;;4985700;28;20533;-68
2023/07/01 18:20:18;;;;;;;3.00;1.27;;;23.30;57.30;;;;;;4991431;28;20866;-68
2023/07/01 18:22:47;;;;;;;1.80;1.30;;;23.30;57.30;;;;;;4985583;28;20460;-67
2023/07/01 18:25:17;;;;;;;1.90;1.10;;;23.30;57.20;;;;;;4986403;28;20830;-67
2023/07/01 18:27:46;;;;;;;3.03;1.00;;;23.30;57.20;;;;;;4985063;28;20960;-67
2023/07/01 18:30:14;;;;;;;2.10;1.30;;;23.30;57.20;;;;;;4994840;28;20859;-66
2023/07/01 18:32:44;;;;;;;1.70;0.90;;;23.30;57.20;;;;;;4986241;28;20513;-67
2023/07/01 18:35:16;;;;;;;5.30;1.10;;;23.30;57.10;;;;;;4985818;28;20579;-67
2023/07/01 18:37:45;;;;;;;1.73;1.00;;;23.30;57.30;;;;;;4978587;28;20497;-68
2023/07/01 18:40:16;;;;;;;1.30;1.00;;;23.30;57.30;;;;;;4998096;28;20881;-68
2023/07/01 18:42:45;;;;;;;1.60;1.10;;;23.30;57.30;;;;;;4978584;28;20465;-68
2023/07/01 18:45:14;;;;;;;1.87;1.57;;;23.30;57.40;;;;;;4994199;28;21007;-67
2023/07/01 18:47:42;;;;;;;2.33;1.30;;;23.30;57.40;;;;;;4993857;28;20503;-66
2023/07/01 18:50:13;;;;;;;4.40;1.40;;;23.30;57.40;;;;;;4970725;28;20542;-68
2023/07/01 19:30:46;;;;;;;2.80;1.40;;;23.30;57.00;;;;;;4965273;28;20473;-67
2023/07/01 19:33:19;;;;;;;2.13;1.37;;;23.30;57.10;;;;;;4969265;28;20469;-66
2023/07/01 19:35:50;;;;;;;2.80;1.30;;;23.30;57.20;;;;;;4986481;28;20454;-67
2023/07/01 19:38:19;;;;;;;2.60;1.00;;;23.30;57.30;;;;;;4981653;28;20424;-70
2023/07/01 19:40:48;;;;;;;5.43;1.33;;;23.30;57.20;;;;;;4971145;28;20431;-66
2023/07/01 19:43:18;;;;;;;2.23;1.30;;;23.30;57.30;;;;;;4985147;28;20470;-66
2023/07/01 19:45:52;;;;;;;2.13;1.13;;;23.30;58.40;;;;;;4984957;28;20480;-68
2023/07/01 19:48:24;;;;;;;1.73;1.20;;;23.30;57.20;;;;;;4978800;28;20855;-67
2023/07/01 19:50:54;;;;;;;5.60;1.47;;;23.30;57.30;;;;;;4984533;28;20453;-67
2023/07/01 19:53:23;;;;;;;1.93;1.00;;;23.30;57.20;;;;;;4984394;28;20468;-68
2023/07/01 20:24:48;;;;;;;1.90;1.00;;;23.30;57.40;;;;;;4966003;28;20809;-66
2023/07/01 20:27:23;;;;;;;1.20;0.80;;;23.30;57.40;;;;;;4984433;28;20445;-67
2023/07/01 20:29:52;;;;;;;1.40;0.93;;;23.30;57.50;;;;;;4986200;28;21001;-68
2023/07/01 20:32:21;;;;;;;2.40;1.17;;;23.30;57.50;;;;;;4979170;28;20478;-68
2023/07/01 20:34:52;;;;;;;1.60;1.27;;;23.30;57.50;;;;;;4985458;28;20490;-68
2023/07/01 20:37:21;;;;;;;1.53;1.10;;;23.30;57.50;;;;;;4982868;28;20828;-68
2023/07/01 20:39:50;;;;;;;1.50;1.20;;;23.30;57.50;;;;;;4985984;28;20462;-67
2023/07/01 20:42:19;;;;;;;2.03;1.27;;;23.30;57.50;;;;;;4963655;28;20490;-68
2023/07/01 20:44:51;;;;;;;1.40;0.97;;;23.30;57.50;;;;;;4984895;28;20477;-67
2023/07/01 20:47:20;;;;;;;2.07;0.90;;;23.30;57.40;;;;;;4978537;28;20454;-67
2023/07/01 20:49:49;;;;;;;1.80;0.90;;;23.30;57.50;;;;;;4985615;28;20478;-68
2023/07/01 20:52:19;;;;;;;1.30;0.87;;;23.30;57.40;;;;;;4985717;28;20836;-68
2023/07/01 20:54:48;;;;;;;1.77;1.10;;;23.30;57.40;;;;;;4985817;28;20538;-68
2023/07/01 20:57:18;;;;;;;2.07;1.50;;;23.30;57.40;;;;;;4986285;28;20932;-68
2023/07/01 20:59:46;;;;;;;1.97;1.10;;;23.30;57.40;;;;;;4985264;28;20488;-68
2023/07/01 21:02:17;;;;;;;1.83;1.27;;;23.30;57.50;;;;;;4986629;28;20471;-68
2023/07/01 21:04:45;;;;;;;1.37;0.77;;;23.30;57.50;;;;;;4985843;28;20475;-68
2023/07/01 21:07:14;;;;;;;1.53;1.10;;;23.30;57.50;;;;;;4987747;28;20462;-68
2023/07/01 21:09:43;;;;;;;1.50;1.30;;;23.30;57.40;;;;;;4989143;28;20474;-68
2023/07/01 21:12:12;;;;;;;1.60;1.30;;;23.30;57.40;;;;;;4981220;28;21093;-67
2023/07/01 21:14:41;;;;;;;1.37;1.00;;;23.30;57.30;;;;;;4987390;28;20464;-67
2023/07/01 21:17:09;;;;;;;1.63;1.10;;;23.30;57.30;;;;;;4972830;28;20749;-68
2023/07/01 21:19:39;;;;;;;1.50;1.10;;;23.30;57.30;;;;;;4987392;28;20472;-67
2023/07/01 21:22:08;;;;;;;1.70;1.20;;;23.30;57.40;;;;;;4986876;28;20478;-67
2023/07/01 21:24:37;;;;;;;1.87;1.30;;;23.30;57.20;;;;;;4987213;28;20483;-68
2023/07/01 21:27:26;;;;;;;2.00;1.20;;;23.30;57.30;;;;;;4987400;28;20444;-68
2023/07/01 21:29:54;;;;;;;1.30;1.03;;;23.30;57.30;;;;;;4984078;28;20476;-68
2023/07/01 21:32:22;;;;;;;1.67;1.10;;;23.30;57.40;;;;;;4979979;28;20469;-67
2023/07/01 21:34:52;;;;;;;1.70;1.23;;;23.30;57.40;;;;;;4987497;28;20465;-68
2023/07/01 21:37:21;;;;;;;1.30;1.07;;;23.30;57.40;;;;;;4987653;28;20455;-68
2023/07/01 21:39:49;;;;;;;1.67;1.17;;;23.20;57.30;;;;;;4987249;28;20478;-69
2023/07/01 21:42:21;;;;;;;1.67;1.10;;;23.30;57.40;;;;;;4995931;28;20498;-68
2023/07/01 21:44:50;;;;;;;1.23;0.87;;;23.30;57.50;;;;;;4986282;28;20624;-67
2023/07/01 21:47:18;;;;;;;2.10;1.40;;;23.20;57.40;;;;;;4987936;28;20794;-68
2023/07/01 21:49:47;;;;;;;1.50;1.30;;;23.30;57.50;;;;;;4987188;28;20470;-68
2023/07/01 21:52:20;;;;;;;1.90;1.23;;;23.20;57.60;;;;;;4986410;28;20485;-68
2023/07/01 21:54:49;;;;;;;1.60;1.10;;;23.30;57.70;;;;;;4986572;28;20548;-68
2023/07/01 21:57:18;;;;;;;1.90;1.20;;;23.30;57.80;;;;;;4986891;28;20546;-67
2023/07/01 21:59:47;;;;;;;1.80;1.23;;;23.30;57.70;;;;;;4986042;28;20486;-67
2023/07/01 22:02:24;;;;;;;2.70;1.00;;;23.30;57.60;;;;;;4986967;28;20473;-68
2023/07/01 22:04:53;;;;;;;2.03;1.27;;;23.30;57.70;;;;;;4971760;28;20493;-66
2023/07/01 22:07:23;;;;;;;1.70;0.90;;;23.20;57.70;;;;;;4972486;28;20444;-67
2023/07/01 22:09:51;;;;;;;1.57;1.27;;;23.30;57.70;;;;;;4986677;28;20469;-68
2023/07/01 22:12:23;;;;;;;1.37;0.90;;;23.30;57.70;;;;;;4979285;28;20454;-67
2023/07/01 22:14:51;;;;;;;1.70;1.20;;;23.30;57.80;;;;;;4988229;28;20498;-67
2023/07/01 22:17:20;;;;;;;2.00;1.40;;;23.30;57.80;;;;;;4986960;28;20442;-68
2023/07/01 22:19:49;;;;;;;2.03;1.53;;;23.30;57.70;;;;;;4986335;28;20471;-68